createdAt,value
2019-05-15T00:00:12.669Z,10.50
2019-05-15T00:00:49.937Z,10.50
2019-05-15T00:01:25.521Z,10.50
2019-05-15T00:02:00.917Z,10.60
2019-05-15T00:02:38.555Z,10.60
2019-05-15T00:03:13.598Z,10.60
2019-05-15T00:03:49.449Z,10.60
2019-05-15T00:04:25.470Z,10.60
2019-05-15T00:05:00.775Z,10.60
2019-05-15T00:05:39.006Z,10.60
2019-05-15T00:06:13.819Z,10.60
2019-05-15T00:06:49.410Z,10.60
2019-05-15T00:07:24.471Z,10.60
2019-05-15T00:08:01.075Z,10.60
2019-05-15T00:08:38.642Z,10.50
2019-05-15T00:09:13.808Z,10.50
2019-05-15T00:09:49.323Z,10.50
2019-05-15T00:10:26.064Z,10.50
2019-05-15T00:11:02.567Z,10.50
2019-05-15T00:11:38.941Z,10.50
2019-05-15T00:12:14.390Z,10.40
2019-05-15T00:12:49.830Z,10.40
2019-05-15T00:13:25.407Z,10.40
2019-05-15T00:14:01.015Z,10.40
2019-05-15T00:14:36.111Z,10.40
2019-05-15T00:15:11.699Z,10.40
2019-05-15T00:15:48.109Z,10.40
2019-05-15T00:16:23.718Z,10.40
2019-05-15T00:16:58.945Z,10.40
2019-05-15T00:17:34.571Z,10.40
2019-05-15T00:18:10.039Z,10.40
2019-05-15T00:18:48.250Z,10.30
2019-05-15T00:19:23.667Z,10.30
2019-05-15T00:19:59.079Z,10.30
2019-05-15T00:20:34.695Z,10.30
2019-05-15T00:21:10.395Z,10.30
2019-05-15T00:21:45.719Z,10.30
2019-05-15T00:22:21.386Z,10.30
2019-05-15T00:22:58.795Z,10.30
2019-05-15T00:23:34.034Z,10.30
2019-05-15T00:24:13.154Z,10.20
2019-05-15T00:24:48.676Z,10.20
2019-05-15T00:25:23.726Z,10.20
2019-05-15T00:25:59.306Z,10.20
2019-05-15T00:26:34.522Z,10.20
2019-05-15T00:27:09.962Z,10.20
2019-05-15T00:27:48.940Z,10.20
2019-05-15T00:28:24.175Z,10.10
2019-05-15T00:29:11.604Z,10.10
2019-05-15T00:29:38.324Z,10.10
2019-05-15T00:30:14.141Z,10.10
2019-05-15T00:30:49.854Z,10.10
2019-05-15T00:31:25.448Z,10.10
2019-05-15T00:32:01.033Z,10.10
2019-05-15T00:32:38.985Z,10.10
2019-05-15T00:33:13.724Z,10.00
2019-05-15T00:33:48.943Z,10.00
2019-05-15T00:34:24.371Z,10.00
2019-05-15T00:34:59.955Z,10.00
2019-05-15T00:35:35.557Z,10.00
2019-05-15T00:36:10.586Z,10.00
2019-05-15T00:36:46.191Z,10.00
2019-05-15T00:37:21.869Z,9.90
2019-05-15T00:38:05.627Z,9.90
2019-05-15T00:38:40.902Z,9.90
2019-05-15T00:39:18.807Z,9.90
2019-05-15T00:39:53.591Z,9.90
2019-05-15T00:40:29.204Z,9.90
2019-05-15T00:41:04.449Z,9.80
2019-05-15T00:41:50.509Z,9.80
2019-05-15T00:42:19.001Z,9.80
2019-05-15T00:42:54.766Z,9.80
2019-05-15T00:43:29.802Z,9.80
2019-05-15T00:44:05.435Z,9.80
2019-05-15T00:44:41.030Z,9.80
2019-05-15T00:45:18.416Z,9.80
2019-05-15T00:45:53.629Z,9.80
2019-05-15T00:46:29.527Z,9.80
2019-05-15T00:47:04.922Z,9.80
2019-05-15T00:47:40.518Z,9.80
2019-05-15T00:48:18.244Z,9.70
2019-05-15T00:48:53.083Z,9.70
2019-05-15T00:49:29.078Z,9.70
2019-05-15T00:50:05.375Z,9.70
2019-05-15T00:50:40.387Z,9.70
2019-05-15T00:51:15.976Z,9.70
2019-05-15T00:51:51.608Z,9.70
2019-05-15T00:52:28.285Z,9.70
2019-05-15T00:53:03.700Z,9.60
2019-05-15T00:53:39.303Z,9.60
2019-05-15T00:54:14.947Z,9.60
2019-05-15T00:54:50.519Z,9.60
2019-05-15T00:55:25.884Z,9.60
2019-05-15T00:56:01.291Z,9.60
2019-05-15T00:56:38.945Z,9.60
2019-05-15T00:57:14.174Z,9.50
2019-05-15T00:57:49.242Z,9.50
2019-05-15T00:58:24.878Z,9.50
2019-05-15T00:59:00.534Z,9.50
2019-05-15T00:59:35.914Z,9.50
2019-05-15T01:00:11.505Z,9.50
2019-05-15T01:00:48.683Z,9.50
2019-05-15T01:01:24.538Z,9.50
2019-05-15T01:02:00.134Z,9.40
2019-05-15T01:02:35.360Z,9.40
2019-05-15T01:03:10.813Z,9.40
2019-05-15T01:03:46.431Z,9.40
2019-05-15T01:04:22.055Z,9.30
2019-05-15T01:04:58.574Z,9.40
2019-05-15T01:05:34.593Z,9.30
2019-05-15T01:06:10.180Z,9.40
2019-05-15T01:06:45.574Z,9.30
2019-05-15T01:07:21.268Z,9.30
2019-05-15T01:07:58.633Z,9.30
2019-05-15T01:08:34.247Z,9.30
2019-05-15T01:09:10.206Z,9.30
2019-05-15T01:09:45.419Z,9.30
2019-05-15T01:10:21.200Z,9.30
2019-05-15T01:10:58.227Z,9.30
2019-05-15T01:11:35.266Z,9.30
2019-05-15T01:12:11.033Z,9.30
2019-05-15T01:12:48.549Z,9.30
2019-05-15T01:13:28.143Z,9.30
2019-05-15T01:14:03.564Z,9.20
2019-05-15T01:14:39.184Z,9.30
2019-05-15T01:15:14.775Z,9.20
2019-05-15T01:15:50.178Z,9.20
2019-05-15T01:16:27.946Z,9.20
2019-05-15T01:17:02.699Z,9.20
2019-05-15T01:17:39.066Z,9.20
2019-05-15T01:18:15.099Z,9.20
2019-05-15T01:18:50.994Z,9.20
2019-05-15T01:19:26.133Z,9.20
2019-05-15T01:20:01.716Z,9.10
2019-05-15T01:20:39.036Z,9.10
2019-05-15T01:21:15.906Z,9.10
2019-05-15T01:21:51.495Z,9.10
2019-05-15T01:22:28.661Z,9.10
2019-05-15T01:23:04.179Z,9.00
2019-05-15T01:23:39.836Z,9.10
2019-05-15T01:24:15.070Z,9.00
2019-05-15T01:24:50.803Z,9.00
2019-05-15T01:25:28.066Z,9.00
2019-05-15T01:26:04.163Z,9.00
2019-05-15T01:26:39.540Z,9.00
2019-05-15T01:27:15.155Z,9.00
2019-05-15T01:27:50.779Z,9.00
2019-05-15T01:28:28.731Z,9.00
2019-05-15T01:29:03.423Z,9.00
2019-05-15T01:29:44.751Z,8.90
2019-05-15T01:30:17.982Z,9.00
2019-05-15T01:30:53.786Z,8.90
2019-05-15T01:31:28.994Z,8.90
2019-05-15T01:32:04.986Z,8.90
2019-05-15T01:32:40.907Z,9.00
2019-05-15T01:33:18.739Z,8.90
2019-05-15T01:33:53.635Z,8.90
2019-05-15T01:34:29.446Z,8.90
2019-05-15T01:35:05.663Z,8.90
2019-05-15T01:35:42.126Z,8.90
2019-05-15T01:36:19.257Z,8.80
2019-05-15T01:36:55.411Z,8.80
2019-05-15T01:37:30.827Z,8.80
2019-05-15T01:38:08.115Z,8.80
2019-05-15T01:38:43.679Z,8.80
2019-05-15T01:39:19.719Z,8.80
2019-05-15T01:39:55.324Z,8.80
2019-05-15T01:40:30.894Z,8.80
2019-05-15T01:41:05.934Z,8.80
2019-05-15T01:41:42.812Z,8.70
2019-05-15T01:42:19.071Z,8.70
2019-05-15T01:42:55.065Z,8.70
2019-05-15T01:43:30.270Z,8.70
2019-05-15T01:44:08.641Z,8.70
2019-05-15T01:44:43.158Z,8.70
2019-05-15T01:45:18.992Z,8.70
2019-05-15T01:45:54.495Z,8.70
2019-05-15T01:46:30.181Z,8.60
2019-05-15T01:47:08.319Z,8.60
2019-05-15T01:47:43.480Z,8.60
2019-05-15T01:48:19.133Z,8.60
2019-05-15T01:48:55.223Z,8.60
2019-05-15T01:49:30.845Z,8.60
2019-05-15T01:50:06.390Z,8.60
2019-05-15T01:50:41.612Z,8.70
2019-05-15T01:51:18.507Z,8.60
2019-05-15T01:51:54.150Z,8.60
2019-05-15T01:52:29.722Z,8.60
2019-05-15T01:53:04.999Z,8.60
2019-05-15T01:53:40.727Z,8.60
2019-05-15T01:54:18.479Z,8.60
2019-05-15T01:54:53.931Z,8.60
2019-05-15T01:55:29.506Z,8.60
2019-05-15T01:56:05.091Z,8.50
2019-05-15T01:56:41.099Z,8.50
2019-05-15T01:57:18.174Z,8.60
2019-05-15T01:57:53.491Z,8.50
2019-05-15T01:58:30.350Z,8.50
2019-05-15T01:59:05.738Z,8.50
2019-05-15T01:59:53.845Z,8.50
2019-05-15T02:00:18.819Z,8.50
2019-05-15T02:00:54.408Z,8.50
2019-05-15T02:01:30.008Z,8.50
2019-05-15T02:02:05.587Z,8.50
2019-05-15T02:02:40.928Z,8.50
2019-05-15T02:03:18.404Z,8.50
2019-05-15T02:03:55.627Z,8.50
2019-05-15T02:04:31.031Z,8.50
2019-05-15T02:05:08.492Z,8.50
2019-05-15T02:05:43.851Z,8.50
2019-05-15T02:06:19.311Z,8.50
2019-05-15T02:06:54.938Z,8.40
2019-05-15T02:07:30.178Z,8.40
2019-05-15T02:08:08.210Z,8.40
2019-05-15T02:08:43.654Z,8.40
2019-05-15T02:09:19.223Z,8.40
2019-05-15T02:09:54.514Z,8.40
2019-05-15T02:10:30.483Z,8.40
2019-05-15T02:11:06.078Z,8.40
2019-05-15T02:11:41.493Z,8.40
2019-05-15T02:12:18.992Z,8.40
2019-05-15T02:12:54.083Z,8.40
2019-05-15T02:13:29.492Z,8.40
2019-05-15T02:14:05.394Z,8.40
2019-05-15T02:14:40.607Z,8.40
2019-05-15T02:15:18.891Z,8.40
2019-05-15T02:15:53.806Z,8.30
2019-05-15T02:16:29.387Z,8.30
2019-05-15T02:17:04.737Z,8.30
2019-05-15T02:17:40.843Z,8.30
2019-05-15T02:18:18.938Z,8.30
2019-05-15T02:18:53.863Z,8.30
2019-05-15T02:19:29.363Z,8.30
2019-05-15T02:20:05.047Z,8.30
2019-05-15T02:20:40.452Z,8.30
2019-05-15T02:21:18.251Z,8.30
2019-05-15T02:21:53.486Z,8.30
2019-05-15T02:22:28.959Z,8.30
2019-05-15T02:23:04.548Z,8.20
2019-05-15T02:23:40.214Z,8.20
2019-05-15T02:24:18.679Z,8.20
2019-05-15T02:24:53.822Z,8.20
2019-05-15T02:25:29.409Z,8.20
2019-05-15T02:26:05.088Z,8.20
2019-05-15T02:26:40.298Z,8.20
2019-05-15T02:27:18.430Z,8.20
2019-05-15T02:27:54.067Z,8.20
2019-05-15T02:28:30.227Z,8.20
2019-05-15T02:29:07.647Z,8.10
2019-05-15T02:29:42.601Z,8.10
2019-05-15T02:30:28.391Z,8.20
2019-05-15T02:30:58.484Z,8.10
2019-05-15T02:31:32.587Z,8.10
2019-05-15T02:32:10.194Z,8.10
2019-05-15T02:32:45.447Z,8.10
2019-05-15T02:33:20.943Z,8.10
2019-05-15T02:33:58.949Z,8.10
2019-05-15T02:34:33.462Z,8.10
2019-05-15T02:35:10.002Z,8.10
2019-05-15T02:35:49.757Z,8.10
2019-05-15T02:36:22.940Z,8.10
2019-05-15T02:37:00.141Z,8.10
2019-05-15T02:37:35.998Z,8.10
2019-05-15T02:38:15.426Z,8.10
2019-05-15T02:38:48.837Z,8.10
2019-05-15T02:39:24.403Z,8.10
2019-05-15T02:40:00.275Z,8.00
2019-05-15T02:40:35.686Z,8.00
2019-05-15T02:41:10.904Z,8.00
2019-05-15T02:41:49.135Z,8.00
2019-05-15T02:42:24.486Z,8.00
2019-05-15T02:43:00.159Z,8.00
2019-05-15T02:43:38.717Z,8.00
2019-05-15T02:44:14.732Z,8.00
2019-05-15T02:44:50.360Z,8.00
2019-05-15T02:45:29.867Z,8.00
2019-05-15T02:46:03.647Z,8.00
2019-05-15T02:46:39.544Z,7.90
2019-05-15T02:47:15.113Z,7.90
2019-05-15T02:47:51.504Z,7.90
2019-05-15T02:48:28.959Z,7.90
2019-05-15T02:49:03.980Z,7.90
2019-05-15T02:49:39.794Z,7.90
2019-05-15T02:50:15.795Z,7.90
2019-05-15T02:50:51.313Z,7.80
2019-05-15T02:51:29.727Z,7.90
2019-05-15T02:52:04.111Z,7.90
2019-05-15T02:52:44.802Z,7.80
2019-05-15T02:53:18.997Z,7.90
2019-05-15T02:53:54.257Z,7.90
2019-05-15T02:54:30.289Z,7.80
2019-05-15T02:55:08.961Z,7.80
2019-05-15T02:55:44.078Z,7.80
2019-05-15T02:56:20.514Z,7.80
2019-05-15T02:56:58.843Z,7.80
2019-05-15T02:57:33.400Z,7.80
2019-05-15T02:58:10.015Z,7.80
2019-05-15T02:58:49.062Z,7.80
2019-05-15T02:59:24.456Z,7.80
2019-05-15T03:00:00.302Z,7.80
2019-05-15T03:00:43.888Z,7.80
2019-05-15T03:01:13.000Z,7.70
2019-05-15T03:01:49.399Z,7.70
2019-05-15T03:02:25.059Z,7.80
2019-05-15T03:03:00.568Z,7.80
2019-05-15T03:03:38.725Z,7.80
2019-05-15T03:04:13.670Z,7.80
2019-05-15T03:04:49.645Z,7.80
2019-05-15T03:05:24.875Z,7.80
2019-05-15T03:06:00.662Z,7.80
2019-05-15T03:06:38.893Z,7.80
2019-05-15T03:07:13.566Z,7.80
2019-05-15T03:07:49.381Z,7.80
2019-05-15T03:08:25.086Z,7.80
2019-05-15T03:09:00.692Z,7.80
2019-05-15T03:09:36.164Z,7.70
2019-05-15T03:10:11.688Z,7.70
2019-05-15T03:10:49.770Z,7.70
2019-05-15T03:11:24.740Z,7.70
2019-05-15T03:12:00.376Z,7.70
2019-05-15T03:12:40.154Z,7.70
2019-05-15T03:13:13.383Z,7.70
2019-05-15T03:13:50.336Z,7.70
2019-05-15T03:14:29.006Z,7.70
2019-05-15T03:15:03.049Z,7.70
2019-05-15T03:15:40.568Z,7.70
2019-05-15T03:16:19.515Z,7.70
2019-05-15T03:16:53.854Z,7.70
2019-05-15T03:17:29.792Z,7.70
2019-05-15T03:18:05.545Z,7.70
2019-05-15T03:18:40.955Z,7.70
2019-05-15T03:19:19.275Z,7.70
2019-05-15T03:19:53.693Z,7.70
2019-05-15T03:20:29.743Z,7.70
2019-05-15T03:21:05.661Z,7.60
2019-05-15T03:21:41.509Z,7.60
2019-05-15T03:22:19.374Z,7.60
2019-05-15T03:22:54.111Z,7.60
2019-05-15T03:23:29.924Z,7.60
2019-05-15T03:24:05.346Z,7.60
2019-05-15T03:24:40.858Z,7.60
2019-05-15T03:25:19.124Z,7.60
2019-05-15T03:25:54.560Z,7.60
2019-05-15T03:26:30.154Z,7.60
2019-05-15T03:27:08.941Z,7.50
2019-05-15T03:27:42.847Z,7.50
2019-05-15T03:28:19.234Z,7.50
2019-05-15T03:28:55.388Z,7.50
2019-05-15T03:29:30.424Z,7.50
2019-05-15T03:30:12.235Z,7.50
2019-05-15T03:31:13.047Z,7.50
2019-05-15T03:31:40.715Z,7.50
2019-05-15T03:32:09.397Z,7.50
2019-05-15T03:32:43.601Z,7.50
2019-05-15T03:33:20.818Z,7.40
2019-05-15T03:33:54.287Z,7.50
2019-05-15T03:34:35.487Z,7.50
2019-05-15T03:35:06.017Z,7.40
2019-05-15T03:35:44.141Z,7.40
2019-05-15T03:36:23.036Z,7.40
2019-05-15T03:36:55.967Z,7.40
2019-05-15T03:37:33.696Z,7.40
2019-05-15T03:38:09.355Z,7.40
2019-05-15T03:38:46.024Z,7.40
2019-05-15T03:39:21.349Z,7.40
2019-05-15T03:39:59.567Z,7.40
2019-05-15T03:40:34.010Z,7.30
2019-05-15T03:41:10.445Z,7.40
2019-05-15T03:41:45.910Z,7.40
2019-05-15T03:42:21.680Z,7.30
2019-05-15T03:42:59.286Z,7.40
2019-05-15T03:43:34.544Z,7.30
2019-05-15T03:44:09.708Z,7.30
2019-05-15T03:44:45.279Z,7.30
2019-05-15T03:45:20.907Z,7.30
2019-05-15T03:45:56.297Z,7.30
2019-05-15T03:46:32.725Z,7.30
2019-05-15T03:47:09.331Z,7.30
2019-05-15T03:47:44.885Z,7.30
2019-05-15T03:48:20.463Z,7.30
2019-05-15T03:48:55.855Z,7.30
2019-05-15T03:49:32.383Z,7.30
2019-05-15T03:50:09.027Z,7.30
2019-05-15T03:50:44.832Z,7.30
2019-05-15T03:51:20.313Z,7.30
2019-05-15T03:51:58.726Z,7.20
2019-05-15T03:52:33.211Z,7.20
2019-05-15T03:53:10.398Z,7.20
2019-05-15T03:53:49.450Z,7.20
2019-05-15T03:54:23.539Z,7.30
2019-05-15T03:54:58.979Z,7.20
2019-05-15T03:55:35.105Z,7.20
2019-05-15T03:56:10.672Z,7.20
2019-05-15T03:56:49.548Z,7.20
2019-05-15T03:57:23.549Z,7.20
2019-05-15T03:57:59.574Z,7.30
2019-05-15T03:58:34.591Z,7.20
2019-05-15T03:59:10.408Z,7.20
2019-05-15T03:59:48.829Z,7.20
2019-05-15T04:00:23.332Z,7.20
2019-05-15T04:01:00.122Z,7.20
2019-05-15T04:01:39.858Z,7.20
2019-05-15T04:02:14.170Z,7.20
2019-05-15T04:02:49.772Z,7.20
2019-05-15T04:03:25.002Z,7.20
2019-05-15T04:04:00.388Z,7.20
2019-05-15T04:04:38.823Z,7.20
2019-05-15T04:05:14.562Z,7.20
2019-05-15T04:05:50.196Z,7.20
2019-05-15T04:06:25.836Z,7.20
2019-05-15T04:07:01.403Z,7.20
2019-05-15T04:07:39.380Z,7.20
2019-05-15T04:08:13.693Z,7.20
2019-05-15T04:08:49.828Z,7.20
2019-05-15T04:09:25.678Z,7.20
2019-05-15T04:10:01.500Z,7.20
2019-05-15T04:10:39.472Z,7.20
2019-05-15T04:11:13.938Z,7.20
2019-05-15T04:11:49.983Z,7.20
2019-05-15T04:12:29.029Z,7.20
2019-05-15T04:13:04.551Z,7.20
2019-05-15T04:13:40.163Z,7.20
2019-05-15T04:14:19.125Z,7.20
2019-05-15T04:14:53.150Z,7.20
2019-05-15T04:15:30.176Z,7.20
2019-05-15T04:16:05.943Z,7.20
2019-05-15T04:16:41.647Z,7.20
2019-05-15T04:17:19.822Z,7.20
2019-05-15T04:17:54.650Z,7.20
2019-05-15T04:18:30.344Z,7.30
2019-05-15T04:19:05.930Z,7.20
2019-05-15T04:19:41.795Z,7.20
2019-05-15T04:20:19.827Z,7.20
2019-05-15T04:20:54.112Z,7.20
2019-05-15T04:21:30.476Z,7.20
2019-05-15T04:22:08.955Z,7.30
2019-05-15T04:22:42.912Z,7.20
2019-05-15T04:23:22.764Z,7.30
2019-05-15T04:23:58.828Z,7.20
2019-05-15T04:24:34.502Z,7.20
2019-05-15T04:25:10.109Z,7.20
2019-05-15T04:25:49.308Z,7.20
2019-05-15T04:26:23.482Z,7.20
2019-05-15T04:26:59.816Z,7.20
2019-05-15T04:27:35.118Z,7.20
2019-05-15T04:28:11.598Z,7.20
2019-05-15T04:28:49.461Z,7.20
2019-05-15T04:29:24.568Z,7.20
2019-05-15T04:30:00.029Z,7.20
2019-05-15T04:30:39.234Z,7.20
2019-05-15T04:31:14.423Z,7.20
2019-05-15T04:31:59.829Z,7.20
2019-05-15T04:32:28.933Z,7.20
2019-05-15T04:33:04.481Z,7.30
2019-05-15T04:33:40.325Z,7.20
2019-05-15T04:34:16.027Z,7.30
2019-05-15T04:34:52.304Z,7.30
2019-05-15T04:35:28.944Z,7.30
2019-05-15T04:36:04.740Z,7.30
2019-05-15T04:36:44.489Z,7.30
2019-05-15T04:37:19.051Z,7.30
2019-05-15T04:37:54.985Z,7.30
2019-05-15T04:38:30.440Z,7.40
2019-05-15T04:39:09.872Z,7.30
2019-05-15T04:39:44.453Z,7.30
2019-05-15T04:40:19.844Z,7.40
2019-05-15T04:40:55.483Z,7.40
2019-05-15T04:41:31.074Z,7.40
2019-05-15T04:42:08.202Z,7.40
2019-05-15T04:42:43.444Z,7.40
2019-05-15T04:43:19.566Z,7.50
2019-05-15T04:43:55.415Z,7.40
2019-05-15T04:44:30.811Z,7.50
2019-05-15T04:45:10.005Z,7.50
2019-05-15T04:45:44.234Z,7.50
2019-05-15T04:46:20.214Z,7.50
2019-05-15T04:46:59.497Z,7.50
2019-05-15T04:47:33.835Z,7.50
2019-05-15T04:48:10.448Z,7.50
2019-05-15T04:48:49.852Z,7.50
2019-05-15T04:49:23.360Z,7.60
2019-05-15T04:49:59.119Z,7.60
2019-05-15T04:50:34.835Z,7.60
2019-05-15T04:51:10.495Z,7.60
2019-05-15T04:51:45.699Z,7.60
2019-05-15T04:52:21.392Z,7.70
2019-05-15T04:52:59.297Z,7.70
2019-05-15T04:53:34.570Z,7.70
2019-05-15T04:54:09.958Z,7.70
2019-05-15T04:54:49.122Z,7.70
2019-05-15T04:55:22.973Z,7.70
2019-05-15T04:55:59.721Z,7.70
2019-05-15T04:56:35.191Z,7.70
2019-05-15T04:57:10.764Z,7.80
2019-05-15T04:57:46.341Z,7.80
2019-05-15T04:58:21.733Z,7.80
2019-05-15T04:59:00.105Z,7.80
2019-05-15T04:59:34.305Z,7.80
2019-05-15T05:00:10.613Z,7.90
2019-05-15T05:00:53.588Z,7.90
2019-05-15T05:01:29.012Z,7.90
2019-05-15T05:02:17.218Z,7.90
2019-05-15T05:02:42.188Z,7.90
2019-05-15T05:03:19.789Z,7.90
2019-05-15T05:03:54.529Z,8.00
2019-05-15T05:04:30.113Z,8.00
2019-05-15T05:05:06.085Z,8.00
2019-05-15T05:05:41.704Z,8.00
2019-05-15T05:06:18.980Z,8.00
2019-05-15T05:06:54.206Z,8.10
2019-05-15T05:07:29.918Z,8.10
2019-05-15T05:08:09.077Z,8.10
2019-05-15T05:08:43.039Z,8.10
2019-05-15T05:09:19.824Z,8.10
2019-05-15T05:09:55.823Z,8.10
2019-05-15T05:10:31.436Z,8.20
2019-05-15T05:11:09.421Z,8.20
2019-05-15T05:11:44.007Z,8.20
2019-05-15T05:12:19.672Z,8.20
2019-05-15T05:12:55.324Z,8.30
2019-05-15T05:13:30.555Z,8.30
2019-05-15T05:14:08.535Z,8.30
2019-05-15T05:14:43.858Z,8.30
2019-05-15T05:15:19.504Z,8.30
2019-05-15T05:15:54.866Z,8.30
2019-05-15T05:16:30.281Z,8.40
2019-05-15T05:17:08.816Z,8.40
2019-05-15T05:17:43.403Z,8.40
2019-05-15T05:18:18.988Z,8.40
2019-05-15T05:18:55.022Z,8.40
2019-05-15T05:19:30.881Z,8.50
2019-05-15T05:20:08.043Z,8.50
2019-05-15T05:20:43.255Z,8.50
2019-05-15T05:21:18.858Z,8.50
2019-05-15T05:21:54.246Z,8.50
2019-05-15T05:22:29.845Z,8.50
2019-05-15T05:23:05.241Z,8.60
2019-05-15T05:23:40.874Z,8.60
2019-05-15T05:24:18.525Z,8.60
2019-05-15T05:24:54.082Z,8.60
2019-05-15T05:25:29.111Z,8.70
2019-05-15T05:26:04.717Z,8.70
2019-05-15T05:26:41.211Z,8.70
2019-05-15T05:27:18.260Z,8.70
2019-05-15T05:27:53.890Z,8.70
2019-05-15T05:28:29.476Z,8.80
2019-05-15T05:29:05.474Z,8.80
2019-05-15T05:29:41.398Z,8.80
2019-05-15T05:30:18.906Z,8.80
2019-05-15T05:30:53.762Z,8.90
2019-05-15T05:31:29.691Z,8.90
2019-05-15T05:32:05.525Z,8.90
2019-05-15T05:32:40.559Z,9.00
2019-05-15T05:33:17.950Z,9.00
2019-05-15T05:33:53.938Z,9.00
2019-05-15T05:34:29.315Z,9.00
2019-05-15T05:35:04.560Z,9.10
2019-05-15T05:35:41.162Z,9.00
2019-05-15T05:36:18.492Z,9.10
2019-05-15T05:36:53.859Z,9.10
2019-05-15T05:37:29.395Z,9.10
2019-05-15T05:38:05.138Z,9.10
2019-05-15T05:38:40.727Z,9.20
2019-05-15T05:39:19.179Z,9.20
2019-05-15T05:39:53.812Z,9.20
2019-05-15T05:40:29.735Z,9.20
2019-05-15T05:41:07.939Z,9.20
2019-05-15T05:41:42.403Z,9.20
2019-05-15T05:42:18.520Z,9.30
2019-05-15T05:42:55.325Z,9.30
2019-05-15T05:43:31.029Z,9.30
2019-05-15T05:44:08.170Z,9.30
2019-05-15T05:44:43.637Z,9.40
2019-05-15T05:45:19.090Z,9.40
2019-05-15T05:45:54.671Z,9.40
2019-05-15T05:46:30.264Z,9.40
2019-05-15T05:47:05.308Z,9.50
2019-05-15T05:47:40.896Z,9.50
2019-05-15T05:48:18.734Z,9.50
2019-05-15T05:48:54.544Z,9.50
2019-05-15T05:49:30.000Z,9.50
2019-05-15T05:50:07.871Z,9.50
2019-05-15T05:50:44.261Z,9.60
2019-05-15T05:51:20.295Z,9.60
2019-05-15T05:51:55.668Z,9.60
2019-05-15T05:52:31.179Z,9.60
2019-05-15T05:53:08.834Z,9.70
2019-05-15T05:53:47.868Z,9.70
2019-05-15T05:54:22.329Z,9.70
2019-05-15T05:54:58.162Z,9.70
2019-05-15T05:55:34.146Z,9.80
2019-05-15T05:56:10.709Z,9.80
2019-05-15T05:56:48.117Z,9.80
2019-05-15T05:57:23.347Z,9.90
2019-05-15T05:57:58.806Z,9.90
2019-05-15T05:58:34.662Z,9.90
2019-05-15T05:59:09.892Z,9.90
2019-05-15T05:59:45.582Z,9.90
2019-05-15T06:00:25.183Z,10.00
2019-05-15T06:01:00.775Z,10.00
2019-05-15T06:01:43.262Z,10.00
2019-05-15T06:02:13.978Z,10.00
2019-05-15T06:02:52.294Z,10.00
2019-05-15T06:03:28.061Z,10.10
2019-05-15T06:04:03.595Z,10.10
2019-05-15T06:04:39.518Z,10.10
2019-05-15T06:05:15.272Z,10.20
2019-05-15T06:05:51.195Z,10.20
2019-05-15T06:06:29.099Z,10.20
2019-05-15T06:07:10.029Z,10.20
2019-05-15T06:07:41.386Z,10.30
2019-05-15T06:08:19.509Z,10.30
2019-05-15T06:08:53.722Z,10.40
2019-05-15T06:09:29.302Z,10.40
2019-05-15T06:10:05.980Z,10.40
2019-05-15T06:10:41.734Z,10.40
2019-05-15T06:11:18.344Z,10.50
2019-05-15T06:11:54.314Z,10.40
2019-05-15T06:12:29.707Z,10.50
2019-05-15T06:13:08.503Z,10.50
2019-05-15T06:13:42.513Z,10.60
2019-05-15T06:14:18.483Z,10.50
2019-05-15T06:14:54.179Z,10.60
2019-05-15T06:15:29.794Z,10.60
2019-05-15T06:16:04.867Z,10.60
2019-05-15T06:16:40.498Z,10.70
2019-05-15T06:17:16.160Z,10.70
2019-05-15T06:17:52.083Z,10.70
2019-05-15T06:18:28.165Z,10.70
2019-05-15T06:19:03.892Z,10.70
2019-05-15T06:19:39.543Z,10.80
2019-05-15T06:20:15.399Z,10.80
2019-05-15T06:20:50.663Z,10.80
2019-05-15T06:21:28.536Z,10.80
2019-05-15T06:22:04.525Z,10.90
2019-05-15T06:22:40.146Z,10.90
2019-05-15T06:23:15.187Z,10.90
2019-05-15T06:23:55.613Z,11.00
2019-05-15T06:24:30.521Z,11.00
2019-05-15T06:25:10.616Z,11.10
2019-05-15T06:25:43.121Z,11.10
2019-05-15T06:26:19.720Z,11.10
2019-05-15T06:26:55.655Z,11.10
2019-05-15T06:27:31.586Z,11.20
2019-05-15T06:28:08.955Z,11.20
2019-05-15T06:28:43.942Z,11.20
2019-05-15T06:29:19.576Z,11.20
2019-05-15T06:29:57.686Z,11.20
2019-05-15T06:30:32.305Z,11.30
2019-05-15T06:31:08.857Z,11.30
2019-05-15T06:31:44.690Z,11.30
2019-05-15T06:32:20.122Z,11.30
2019-05-15T06:33:05.755Z,11.40
2019-05-15T06:33:33.827Z,11.40
2019-05-15T06:34:09.627Z,11.40
2019-05-15T06:34:45.203Z,11.40
2019-05-15T06:35:20.465Z,11.50
2019-05-15T06:35:55.892Z,11.40
2019-05-15T06:36:31.523Z,11.50
2019-05-15T06:37:08.315Z,11.50
2019-05-15T06:37:43.504Z,11.50
2019-05-15T06:38:19.819Z,11.50
2019-05-15T06:38:55.587Z,11.50
2019-05-15T06:39:31.263Z,11.60
2019-05-15T06:40:08.486Z,11.60
2019-05-15T06:40:44.466Z,11.60
2019-05-15T06:41:19.874Z,11.60
2019-05-15T06:41:55.486Z,11.60
2019-05-15T06:42:31.002Z,11.60
2019-05-15T06:43:08.769Z,11.60
2019-05-15T06:43:44.538Z,11.70
2019-05-15T06:44:20.138Z,11.70
2019-05-15T06:44:55.205Z,11.70
2019-05-15T06:45:30.826Z,11.70
2019-05-15T06:46:08.998Z,11.80
2019-05-15T06:46:44.053Z,11.80
2019-05-15T06:47:19.576Z,11.80
2019-05-15T06:47:55.150Z,11.80
2019-05-15T06:48:30.545Z,11.90
2019-05-15T06:49:08.335Z,11.90
2019-05-15T06:49:43.071Z,11.90
2019-05-15T06:50:53.262Z,11.90
2019-05-15T06:51:29.832Z,11.90
2019-05-15T06:52:05.078Z,11.90
2019-05-15T06:52:40.833Z,12.00
2019-05-15T06:53:18.784Z,12.00
2019-05-15T06:53:53.711Z,12.00
2019-05-15T06:54:29.001Z,12.00
2019-05-15T06:55:04.714Z,12.10
2019-05-15T06:55:40.310Z,12.00
2019-05-15T06:56:15.765Z,12.10
2019-05-15T06:56:51.411Z,12.10
2019-05-15T06:57:28.702Z,12.10
2019-05-15T06:58:04.330Z,12.10
2019-05-15T06:58:39.931Z,12.10
2019-05-15T06:59:15.426Z,12.20
2019-05-15T06:59:51.632Z,12.20
2019-05-15T07:00:28.374Z,12.20
2019-05-15T07:01:04.020Z,12.20
2019-05-15T07:01:39.067Z,12.20
2019-05-15T07:02:14.646Z,12.30
2019-05-15T07:02:50.523Z,12.30
2019-05-15T07:03:29.056Z,12.30
2019-05-15T07:04:03.249Z,12.30
2019-05-15T07:04:39.223Z,12.30
2019-05-15T07:05:14.623Z,12.30
2019-05-15T07:05:51.200Z,12.30
2019-05-15T07:06:28.596Z,12.40
2019-05-15T07:07:07.852Z,12.40
2019-05-15T07:07:43.168Z,12.40
2019-05-15T07:08:18.797Z,12.40
2019-05-15T07:08:54.988Z,12.40
2019-05-15T07:09:30.575Z,12.50
2019-05-15T07:10:08.696Z,12.50
2019-05-15T07:10:43.583Z,12.50
2019-05-15T07:11:19.218Z,12.50
2019-05-15T07:11:54.955Z,12.50
2019-05-15T07:12:30.351Z,12.50
2019-05-15T07:13:06.010Z,12.50
2019-05-15T07:13:41.580Z,12.60
2019-05-15T07:14:18.141Z,12.60
2019-05-15T07:14:53.994Z,12.60
2019-05-15T07:15:29.581Z,12.60
2019-05-15T07:16:04.611Z,12.60
2019-05-15T07:16:40.212Z,12.60
2019-05-15T07:17:17.753Z,12.60
2019-05-15T07:17:53.389Z,12.60
2019-05-15T07:18:28.607Z,12.70
2019-05-15T07:19:04.174Z,12.70
2019-05-15T07:19:39.904Z,12.70
2019-05-15T07:20:15.527Z,12.70
2019-05-15T07:20:50.758Z,12.70
2019-05-15T07:21:28.341Z,12.70
2019-05-15T07:22:05.053Z,12.70
2019-05-15T07:22:40.672Z,12.70
2019-05-15T07:23:18.330Z,12.80
2019-05-15T07:23:53.035Z,12.80
2019-05-15T07:24:30.073Z,12.80
2019-05-15T07:25:05.908Z,12.80
2019-05-15T07:25:41.115Z,12.80
2019-05-15T07:26:18.330Z,12.80
2019-05-15T07:26:53.862Z,12.80
2019-05-15T07:27:29.551Z,12.90
2019-05-15T07:28:05.122Z,12.90
2019-05-15T07:28:40.568Z,12.90
2019-05-15T07:29:18.638Z,12.90
2019-05-15T07:29:53.741Z,12.90
2019-05-15T07:30:29.095Z,13.00
2019-05-15T07:31:04.665Z,13.00
2019-05-15T07:31:40.267Z,13.00
2019-05-15T07:32:15.655Z,13.00
2019-05-15T07:32:51.199Z,13.00
2019-05-15T07:33:38.666Z,13.00
2019-05-15T07:34:05.212Z,13.00
2019-05-15T07:34:40.850Z,13.00
2019-05-15T07:35:19.007Z,13.00
2019-05-15T07:35:53.659Z,13.00
2019-05-15T07:36:29.333Z,13.00
2019-05-15T07:37:04.931Z,13.10
2019-05-15T07:37:40.131Z,13.10
2019-05-15T07:38:18.156Z,13.10
2019-05-15T07:38:54.390Z,13.10
2019-05-15T07:39:29.838Z,13.10
2019-05-15T07:40:08.246Z,13.10
2019-05-15T07:40:43.483Z,13.10
2019-05-15T07:41:20.323Z,13.10
2019-05-15T07:41:57.834Z,13.20
2019-05-15T07:42:33.584Z,13.20
2019-05-15T07:43:09.523Z,13.20
2019-05-15T07:43:45.298Z,13.20
2019-05-15T07:44:20.875Z,13.20
2019-05-15T07:44:58.631Z,13.20
2019-05-15T07:45:33.191Z,13.30
2019-05-15T07:46:08.823Z,13.30
2019-05-15T07:46:44.239Z,13.30
2019-05-15T07:47:19.787Z,13.30
2019-05-15T07:47:55.391Z,13.30
2019-05-15T07:48:30.839Z,13.40
2019-05-15T07:49:08.871Z,13.40
2019-05-15T07:49:43.664Z,13.50
2019-05-15T07:50:19.737Z,13.50
2019-05-15T07:50:55.643Z,13.50
2019-05-15T07:51:31.253Z,13.50
2019-05-15T07:52:08.629Z,13.60
2019-05-15T07:52:44.238Z,13.60
2019-05-15T07:53:20.328Z,13.60
2019-05-15T07:53:58.252Z,13.70
2019-05-15T07:54:32.838Z,13.70
2019-05-15T07:55:09.126Z,13.70
2019-05-15T07:55:44.552Z,13.70